Time;durP1;ratioP1;P1;durP2;ratioP2;P2;SDS_P1;SDS_P2;PMS_P1;PMS_P2;Temp;Humidity;BMP_temperature;BMP_pressure;BME280_temperature;BME280_humidity;BME280_pressure;Samples;Min_cycle;Max_cycle;Signal;HPM_P1;HPM_P2
2022/09/24 00:00:19;;;;;;;16.00;7.20;;;;;;;6.94;66.46;98986.34;105675;1279;25567;-79
2022/09/24 00:03:10;;;;;;;16.60;7.50;;;;;;;6.99;66.33;98986.18;105709;1279;22603;-85
2022/09/24 00:05:38;;;;;;;14.60;6.90;;;;;;;7.04;66.39;98984.11;105682;1279;22625;-84
2022/09/24 00:08:07;;;;;;;17.60;7.60;;;;;;;7.07;66.32;98983.63;105739;1279;24403;-85
2022/09/24 00:10:42;;;;;;;15.70;7.40;;;;;;;7.08;66.38;98986.02;105687;1282;25507;-81
2022/09/24 00:13:27;;;;;;;23.30;10.70;;;;;;;7.09;66.42;98984.58;105587;1280;22832;-86
2022/09/24 00:15:58;;;;;;;29.50;13.10;;;;;;;7.05;66.16;98980.34;105782;1274;25330;-80
2022/09/24 00:18:28;;;;;;;31.90;14.40;;;;;;;7.01;66.45;98977.05;105946;1272;22543;-85
2022/09/24 00:21:07;;;;;;;;;;;;;;;;;;;;;
2022/09/24 00:23:37;;;;;;;37.40;15.90;;;;;;;6.90;66.41;98975.05;106168;1273;22519;-82
2022/09/24 00:29:14;;;;;;;22.00;9.80;;;;;;;6.89;66.64;98969.66;106366;1271;22613;-86
2022/09/24 00:31:44;;;;;;;20.20;7.90;;;;;;;6.92;66.77;98966.40;106322;1274;22537;-80
2022/09/24 00:34:22;;;;;;;;;;;;;;;;;;;;;
2022/09/24 00:37:22;;;;;;;21.10;9.40;;;;;;;7.02;66.77;98960.02;106226;1272;25535;-83
2022/09/24 00:39:52;;;;;;;25.20;11.40;;;;;;;7.03;66.56;98960.66;106349;1271;25556;-81
2022/09/24 00:42:22;;;;;;;25.70;10.30;;;;;;;7.01;66.79;98956.37;105941;1275;24208;-86
2022/09/24 00:44:55;;;;;;;27.70;11.10;;;;;;;6.98;66.63;98955.66;105986;1274;24359;-82
2022/09/24 00:47:27;;;;;;;28.60;11.30;;;;;;;6.94;66.73;98955.50;106055;1274;22553;-80
2022/09/24 00:50:06;;;;;;;26.90;11.80;;;;;;;6.91;66.74;98950.06;106303;1274;25466;-79
2022/09/24 00:52:41;;;;;;;28.50;10.90;;;;;;;6.86;66.52;98944.88;106096;1274;24311;-85
2022/09/24 00:55:10;;;;;;;24.90;10.80;;;;;;;6.84;66.83;98946.94;106036;1274;22600;-86
2022/09/24 00:57:39;;;;;;;15.50;7.20;;;;;;;6.86;66.79;98943.23;106238;1274;22691;-85
2022/09/24 01:00:10;;;;;;;13.80;6.20;;;;;;;6.91;66.94;98937.27;106287;1273;22555;-84
2022/09/24 01:03:08;;;;;;;14.10;6.00;;;;;;;6.97;67.18;98941.19;106008;1273;25298;-80
2022/09/24 01:05:39;;;;;;;13.30;6.10;;;;;;;7.04;67.08;98941.12;106240;1273;26579;-80
2022/09/24 01:08:13;;;;;;;11.70;5.70;;;;;;;7.10;67.07;98941.13;106345;1271;22771;-79
2022/09/24 01:11:18;;;;;;;12.70;5.70;;;;;;;7.13;67.05;98935.30;106326;1271;24284;-83
2022/09/24 01:13:59;;;;;;;12.10;6.10;;;;;;;7.16;67.30;98933.84;106397;1271;25328;-79
2022/09/24 01:16:29;;;;;;;13.10;6.10;;;;;;;7.18;67.14;98934.39;106230;1273;24870;-79
2022/09/24 01:19:38;;;;;;;14.10;7.10;;;;;;;7.19;67.09;98932.80;106011;1273;25475;-86
2022/09/24 01:23:14;;;;;;;14.00;6.80;;;;;;;7.22;67.11;98937.55;106321;1274;22533;-83
2022/09/24 01:25:43;;;;;;;15.10;6.00;;;;;;;7.28;67.21;98927.42;106359;1271;24321;-82
2022/09/24 01:28:31;;;;;;;12.00;6.10;;;;;;;7.37;67.17;98922.50;106321;1272;22538;-81
2022/09/24 01:31:23;;;;;;;11.70;4.70;;;;;;;7.50;67.35;98916.35;106255;1273;22647;-85
2022/09/24 01:33:56;;;;;;;12.00;4.60;;;;;;;7.63;67.25;98918.77;106239;1273;24274;-81
2022/09/24 01:36:35;;;;;;;9.50;4.30;;;;;;;7.72;67.39;98918.21;106270;1273;26575;-81
2022/09/24 01:39:20;;;;;;;;;;;;;;;;;;;;;
2022/09/24 01:41:52;;;;;;;7.80;3.20;;;;;;;7.84;67.45;98910.30;106357;1271;22779;-85
2022/09/24 01:45:29;;;;;;;8.10;3.40;;;;;;;7.91;67.21;98909.40;106344;1271;23127;-82
2022/09/24 01:47:44;;;;;;;8.70;3.20;;;;;;;7.98;67.33;98909.33;106338;1271;25238;-79
2022/09/24 01:50:21;;;;;;;9.30;3.30;;;;;;;8.01;67.23;98906.40;106275;1274;22553;-81
2022/09/24 01:53:09;;;;;;;7.60;3.40;;;;;;;8.06;67.20;98908.75;106302;1271;22621;-83
2022/09/24 01:55:48;;;;;;;7.90;2.90;;;;;;;8.12;67.18;98903.73;106336;1274;22531;-84
2022/09/24 01:58:29;;;;;;;7.70;3.00;;;;;;;8.20;67.28;98900.05;106248;1274;25408;-78
2022/09/24 02:01:06;;;;;;;10.40;2.70;;;;;;;8.27;67.33;98902.78;106008;1274;22566;-79
2022/09/24 02:03:43;;;;;;;7.50;2.90;;;;;;;8.35;67.29;98899.75;106159;1274;22624;-81
2022/09/24 02:06:41;;;;;;;8.00;2.90;;;;;;;8.44;67.43;98901.54;106044;1273;23474;-80
2022/09/24 02:09:29;;;;;;;8.70;3.30;;;;;;;8.50;67.48;98899.38;106246;1273;22629;-84
2022/09/24 02:12:15;;;;;;;10.00;3.60;;;;;;;8.53;67.42;98899.34;106145;1273;22531;-83
2022/09/24 02:14:56;;;;;;;7.70;3.10;;;;;;;8.54;67.50;98898.94;106060;1274;22710;-79
2022/09/24 02:17:30;;;;;;;8.30;3.30;;;;;;;8.52;67.53;98893.21;105987;1274;22572;-83
2022/09/24 02:20:15;;;;;;;7.80;3.60;;;;;;;8.49;67.65;98888.11;106360;1271;22587;-80
2022/09/24 02:22:48;;;;;;;8.00;3.70;;;;;;;8.48;67.53;98887.10;105948;1274;24481;-81
2022/09/24 02:25:26;;;;;;;8.10;3.30;;;;;;;8.50;67.69;98889.45;105984;1272;25430;-80
2022/09/24 02:27:56;;;;;;;8.00;2.90;;;;;;;8.54;67.80;98892.35;106101;1274;24347;-82
2022/09/24 02:30:48;;;;;;;7.40;3.00;;;;;;;8.60;67.64;98891.27;105894;1274;22626;-81
2022/09/24 02:36:41;;;;;;;7.40;2.80;;;;;;;8.75;67.69;98883.87;106295;1271;24413;-79
2022/09/24 02:39:11;;;;;;;8.60;3.40;;;;;;;8.79;67.57;98882.15;105969;1275;25491;-85
2022/09/24 02:41:59;;;;;;;7.70;3.00;;;;;;;8.82;67.54;98879.95;105959;1275;22547;-83
2022/09/24 02:44:43;;;;;;;7.50;2.80;;;;;;;8.86;67.53;98878.14;105921;1273;22657;-81
2022/09/24 02:47:28;;;;;;;8.30;2.50;;;;;;;8.89;67.49;98882.33;106205;1272;25441;-80
2022/09/24 02:50:24;;;;;;;;;;;;;;;;;;;;;
2022/09/24 02:52:59;;;;;;;7.30;2.90;;;;;;;8.94;67.44;98873.67;106110;1271;22545;-84
2022/09/24 02:56:09;;;;;;;6.80;2.60;;;;;;;8.98;67.47;98872.55;106362;1272;25387;-79
2022/09/24 02:58:36;;;;;;;6.20;2.30;;;;;;;9.03;67.49;98869.73;106305;1271;23459;-79
2022/09/24 03:01:07;;;;;;;8.40;3.00;;;;;;;9.08;67.44;98862.75;105974;1271;24237;-81
2022/09/24 03:03:58;;;;;;;8.40;2.90;;;;;;;9.16;67.46;98861.69;106001;1274;22522;-84
2022/09/24 03:06:32;;;;;;;11.80;3.20;;;;;;;9.22;67.53;98862.30;106261;1271;22592;-80
2022/09/24 03:09:39;;;;;;;9.00;3.00;;;;;;;9.27;67.54;98857.68;106224;1271;22531;-84
2022/09/24 03:12:07;;;;;;;8.50;3.10;;;;;;;9.30;67.46;98859.63;106211;1271;25448;-79
2022/09/24 03:15:00;;;;;;;7.30;3.10;;;;;;;9.32;67.24;98859.15;106343;1274;22745;-81
2022/09/24 03:18:02;;;;;;;7.90;2.80;;;;;;;9.32;67.52;98856.45;106356;1271;24230;-81
2022/09/24 03:21:12;;;;;;;7.90;2.60;;;;;;;9.32;67.43;98850.09;106326;1271;23946;-83
2022/09/24 03:23:42;;;;;;;7.20;2.80;;;;;;;9.31;67.55;98852.25;106041;1272;25307;-79
2022/09/24 03:26:11;;;;;;;7.30;3.30;;;;;;;9.31;67.46;98851.79;106356;1271;22553;-81
2022/09/24 03:28:39;;;;;;;8.40;3.20;;;;;;;9.30;67.53;98846.67;106256;1274;25472;-80
2022/09/24 03:31:09;;;;;;;7.90;3.00;;;;;;;9.31;67.42;98846.96;105974;1273;25610;-80
2022/09/24 03:33:48;;;;;;;7.10;3.10;;;;;;;9.33;67.52;98844.29;106166;1271;25349;-79
2022/09/24 03:36:27;;;;;;;8.00;2.90;;;;;;;9.38;67.55;98844.36;106098;1272;25738;-83
2022/09/24 03:38:58;;;;;;;9.70;3.10;;;;;;;9.40;67.58;98838.81;105970;1273;22647;-84
2022/09/24 03:41:27;;;;;;;7.80;3.30;;;;;;;9.41;67.59;98837.34;105953;1272;25250;-80
2022/09/24 03:44:03;;;;;;;7.70;2.90;;;;;;;9.41;67.64;98835.36;105935;1273;22554;-84
2022/09/24 03:46:29;;;;;;;7.60;2.90;;;;;;;9.43;67.55;98837.94;106006;1271;25462;-78
2022/09/24 03:49:03;;;;;;;8.00;3.20;;;;;;;9.45;67.60;98838.65;106331;1271;24343;-83
2022/09/24 03:51:37;;;;;;;7.70;3.50;;;;;;;9.45;67.45;98837.22;106029;1274;22538;-80
2022/09/24 03:54:04;;;;;;;9.20;3.50;;;;;;;9.44;67.49;98837.00;106024;1271;26536;-80
2022/09/24 03:56:38;;;;;;;8.90;3.70;;;;;;;9.43;67.59;98836.52;106316;1271;25487;-79
2022/09/24 03:59:05;;;;;;;8.20;3.60;;;;;;;9.43;67.45;98831.91;106153;1274;25727;-79
2022/09/24 04:01:35;;;;;;;8.30;3.00;;;;;;;9.44;67.48;98831.81;106101;1271;25208;-79
2022/09/24 04:04:04;;;;;;;9.20;3.30;;;;;;;9.47;67.44;98829.45;106027;1277;25432;-78
2022/09/24 04:06:34;;;;;;;7.30;3.20;;;;;;;9.51;67.47;98825.99;106270;1272;25560;-81
2022/09/24 04:09:02;;;;;;;7.90;3.30;;;;;;;9.57;67.48;98824.88;106076;1274;25307;-79
2022/09/24 04:11:29;;;;;;;8.20;3.20;;;;;;;9.58;67.36;98823.34;105997;1272;24429;-79
2022/09/24 04:13:58;;;;;;;10.30;3.60;;;;;;;9.58;67.49;98822.23;105921;1274;25521;-81
2022/09/24 04:16:26;;;;;;;7.70;3.00;;;;;;;9.59;67.54;98822.24;105929;1276;22568;-83
2022/09/24 04:18:55;;;;;;;9.00;3.30;;;;;;;9.58;67.73;98822.66;105994;1274;22500;-80
2022/09/24 04:21:29;;;;;;;6.80;3.10;;;;;;;9.56;67.71;98822.77;106032;1272;24284;-81
2022/09/24 04:23:59;;;;;;;7.90;3.20;;;;;;;9.55;67.45;98826.24;105971;1275;22728;-82
2022/09/24 04:26:26;;;;;;;7.50;3.00;;;;;;;9.53;67.57;98821.03;106159;1274;25555;-79
2022/09/24 04:28:59;;;;;;;8.90;4.10;;;;;;;9.54;67.56;98817.95;106154;1271;24203;-78
2022/09/24 04:31:26;;;;;;;8.60;3.00;;;;;;;9.56;67.45;98814.41;106341;1274;22567;-78
2022/09/24 04:33:53;;;;;;;8.10;2.90;;;;;;;9.59;67.60;98812.41;106360;1271;24370;-81
2022/09/24 04:36:34;;;;;;;10.00;2.80;;;;;;;9.63;67.51;98811.96;105952;1275;25295;-79
2022/09/24 04:39:02;;;;;;;9.50;3.30;;;;;;;9.67;67.43;98808.09;106041;1272;25531;-80
2022/09/24 04:41:39;;;;;;;8.50;3.30;;;;;;;9.71;67.70;98813.31;105960;1276;23040;-83
2022/09/24 04:44:12;;;;;;;10.10;3.00;;;;;;;9.75;67.39;98813.73;106249;1272;25544;-82
2022/09/24 04:46:42;;;;;;;9.10;2.70;;;;;;;9.79;67.54;98812.05;105993;1277;22557;-85
2022/09/24 04:49:09;;;;;;;7.90;3.00;;;;;;;9.83;67.30;98809.30;106270;1272;24279;-81
2022/09/24 04:51:47;;;;;;;9.70;3.00;;;;;;;9.83;67.62;98805.69;106269;1271;26475;-79
2022/09/24 04:54:17;;;;;;;8.20;3.30;;;;;;;9.83;67.76;98804.84;106235;1273;22576;-81
2022/09/24 04:56:45;;;;;;;13.70;4.60;;;;;;;9.80;67.67;98803.83;106227;1274;25546;-78
2022/09/24 04:59:12;;;;;;;10.20;4.40;;;;;;;9.76;67.75;98803.73;106074;1274;25428;-77
2022/09/24 05:01:39;;;;;;;12.90;4.60;;;;;;;9.73;67.78;98802.89;106312;1271;22493;-85
2022/09/24 05:04:06;;;;;;;12.40;4.50;;;;;;;9.71;67.84;98800.37;106212;1274;22553;-82
2022/09/24 05:06:35;;;;;;;13.00;5.10;;;;;;;9.71;67.98;98800.86;106256;1271;24273;-80
2022/09/24 05:09:06;;;;;;;12.70;4.10;;;;;;;9.74;68.00;98797.32;105939;1271;22597;-78
2022/09/24 05:11:33;;;;;;;13.30;4.80;;;;;;;9.77;68.14;98799.25;105986;1275;24205;-83
2022/09/24 05:14:08;;;;;;;17.80;5.00;;;;;;;9.81;68.07;98803.95;105919;1273;24409;-80
2022/09/24 05:16:37;;;;;;;19.50;5.90;;;;;;;9.82;68.28;98802.41;106002;1271;25295;-79
2022/09/24 05:19:14;;;;;;;24.20;8.10;;;;;;;9.83;68.25;98800.43;105960;1274;24209;-86
2022/09/24 05:21:43;;;;;;;14.70;5.60;;;;;;;9.81;68.29;98804.45;106347;1271;25307;-81
2022/09/24 05:24:15;;;;;;;16.70;5.00;;;;;;;9.79;68.16;98801.73;106307;1271;26470;-79
2022/09/24 05:29:36;;;;;;;12.60;4.50;;;;;;;9.75;68.16;98798.61;106279;1271;22547;-79
2022/09/24 05:32:08;;;;;;;20.00;4.90;;;;;;;9.77;68.33;98796.05;105990;1277;25639;-78
2022/09/24 05:34:49;;;;;;;35.30;5.20;;;;;;;9.81;68.40;98795.69;106050;1271;22540;-85
2022/09/24 05:37:28;;;;;;;26.30;5.10;;;;;;;9.87;68.26;98799.17;106270;1274;25661;-83
2022/09/24 05:40:46;;;;;;;20.30;4.20;;;;;;;9.97;68.37;98798.84;106180;1272;22557;-82
2022/09/24 05:42:48;;;;;;;14.90;3.60;;;;;;;10.05;68.31;98796.42;106039;1272;22569;-85
2022/09/24 05:45:16;;;;;;;14.10;3.70;;;;;;;10.11;68.17;98790.15;106214;1275;25313;-79
2022/09/24 05:47:47;;;;;;;28.00;4.40;;;;;;;10.16;68.21;98794.71;106179;1274;22532;-81
2022/09/24 05:50:23;;;;;;;29.50;4.40;;;;;;;10.21;68.00;98800.76;105975;1277;24540;-83
2022/09/24 05:52:53;;;;;;;23.00;4.50;;;;;;;10.27;67.98;98803.89;105988;1271;25545;-81
2022/09/24 05:55:23;;;;;;;15.20;4.10;;;;;;;10.34;68.03;98805.16;105894;1275;25333;-79
2022/09/24 05:58:32;;;;;;;;;;;;;;;;;;;;;
2022/09/24 06:01:01;;;;;;;16.00;4.50;;;;;;;10.48;68.12;98801.98;106301;1274;22554;-85
2022/09/24 06:03:30;;;;;;;14.00;4.20;;;;;;;10.59;68.17;98799.69;106268;1271;24292;-81
2022/09/24 06:06:12;;;;;;;;;;;;;;;;;;;;;
2022/09/24 06:08:47;;;;;;;12.80;3.10;;;;;;;10.89;67.94;98800.23;106306;1275;25464;-79
2022/09/24 06:11:18;;;;;;;8.20;2.90;;;;;;;11.07;67.82;98800.44;106139;1272;25340;-79
2022/09/24 06:13:49;;;;;;;9.30;2.60;;;;;;;11.21;67.76;98799.85;106030;1275;24203;-84
2022/09/24 06:16:20;;;;;;;9.60;2.40;;;;;;;11.37;67.75;98801.96;105998;1276;22554;-85
2022/09/24 06:19:00;;;;;;;7.80;2.70;;;;;;;11.49;67.60;98804.05;106347;1271;24345;-84
2022/09/24 06:21:33;;;;;;;9.00;3.00;;;;;;;11.58;67.57;98803.00;106029;1271;25245;-79
2022/09/24 06:24:00;;;;;;;9.20;3.20;;;;;;;11.63;67.53;98804.16;106267;1272;24296;-77
2022/09/24 06:26:27;;;;;;;7.20;2.70;;;;;;;11.70;67.48;98809.92;106518;1271;25636;-78
2022/09/24 06:28:57;;;;;;;9.90;3.00;;;;;;;11.73;67.51;98805.32;106290;1272;22544;-81
2022/09/24 06:31:40;;;;;;;8.60;2.80;;;;;;;11.78;67.40;98806.75;106362;1274;23088;-80
2022/09/24 06:34:17;;;;;;;13.10;3.30;;;;;;;11.84;67.36;98804.52;105998;1275;24211;-85
2022/09/24 06:36:44;;;;;;;9.20;2.80;;;;;;;11.89;67.31;98804.23;106024;1272;25315;-78
2022/09/24 06:39:14;;;;;;;8.50;3.30;;;;;;;11.93;67.27;98807.36;106312;1272;24209;-86
2022/09/24 06:41:41;;;;;;;12.10;3.20;;;;;;;11.98;67.42;98805.33;106160;1272;25304;-79
2022/09/24 06:44:12;;;;;;;9.20;2.90;;;;;;;12.05;67.43;98808.48;105969;1271;22532;-83
2022/09/24 06:46:39;;;;;;;9.20;2.50;;;;;;;12.12;67.38;98811.65;106016;1274;24284;-82
2022/09/24 06:49:16;;;;;;;10.50;2.70;;;;;;;12.19;67.46;98814.27;106429;1271;24254;-79
2022/09/24 06:51:43;;;;;;;10.70;2.60;;;;;;;12.26;67.48;98815.52;105957;1274;22734;-80
2022/09/24 06:54:32;;;;;;;9.90;3.00;;;;;;;12.30;67.30;98809.23;106365;1271;25312;-80
2022/09/24 06:57:06;;;;;;;11.20;2.60;;;;;;;12.37;67.46;98812.27;105962;1274;22659;-80
2022/09/24 06:59:37;;;;;;;7.20;2.60;;;;;;;12.42;67.35;98813.66;105979;1275;25518;-78
2022/09/24 07:02:14;;;;;;;8.80;2.70;;;;;;;12.43;67.30;98815.50;105992;1278;22567;-79
2022/09/24 07:05:04;;;;;;;6.00;2.50;;;;;;;12.47;67.37;98816.80;106373;1271;24212;-84
2022/09/24 07:07:54;;;;;;;8.70;2.80;;;;;;;12.53;67.45;98821.30;106242;1274;22519;-83
2022/09/24 07:10:23;;;;;;;10.40;3.30;;;;;;;12.63;67.52;98827.04;106306;1271;25432;-78
2022/09/24 07:13:15;;;;;;;9.40;3.80;;;;;;;12.72;67.22;98830.41;106015;1271;24251;-86
2022/09/24 07:16:10;;;;;;;12.60;3.80;;;;;;;12.78;67.28;98831.31;106096;1274;26516;-80
2022/09/24 07:18:51;;;;;;;10.80;3.70;;;;;;;12.91;67.43;98830.33;106464;1271;24036;-80
2022/09/24 07:22:05;;;;;;;11.90;4.10;;;;;;;13.05;67.19;98835.41;105974;1271;26737;-80
2022/09/24 07:24:55;;;;;;;8.90;3.60;;;;;;;13.19;67.06;98832.92;106296;1271;24236;-81
2022/09/24 07:27:23;;;;;;;8.90;3.00;;;;;;;13.34;66.91;98833.84;106251;1272;24203;-79
2022/09/24 07:30:17;;;;;;;8.60;2.10;;;;;;;13.45;66.79;98837.31;106019;1274;28603;-79
2022/09/24 07:32:57;;;;;;;11.60;3.80;;;;;;;13.54;66.74;98836.76;106067;1274;24411;-81
2022/09/24 07:35:27;;;;;;;10.50;3.50;;;;;;;13.63;66.80;98834.19;106251;1274;25280;-79
2022/09/24 07:38:11;;;;;;;9.10;3.40;;;;;;;13.72;66.61;98832.95;106153;1274;22554;-79
2022/09/24 07:41:08;;;;;;;7.80;3.00;;;;;;;13.76;66.63;98831.70;106045;1274;25694;-80
2022/09/24 07:43:50;;;;;;;7.40;2.80;;;;;;;13.86;66.81;98829.93;106224;1271;25429;-78
2022/09/24 07:46:20;;;;;;;10.00;2.50;;;;;;;13.96;66.83;98834.05;106265;1271;25366;-79
2022/09/24 07:48:53;;;;;;;10.30;3.10;;;;;;;14.00;66.54;98830.29;106406;1272;25520;-81
2022/09/24 07:51:36;;;;;;;11.30;2.60;;;;;;;14.03;66.69;98833.45;106099;1274;22554;-81
2022/09/24 07:54:04;;;;;;;9.60;2.70;;;;;;;14.08;66.65;98835.66;106003;1276;24271;-79
2022/09/24 07:56:35;;;;;;;7.50;2.30;;;;;;;14.15;66.44;98838.81;105975;1271;22651;-79
2022/09/24 07:59:12;;;;;;;8.50;3.80;;;;;;;14.19;66.31;98838.63;105971;1272;25365;-79
2022/09/24 08:01:52;;;;;;;8.80;3.40;;;;;;;14.21;66.19;98834.81;106317;1272;22547;-84
2022/09/24 08:04:40;;;;;;;;;;;;;;;;;;;;;
2022/09/24 08:07:12;;;;;;;8.60;2.60;;;;;;;14.39;66.35;98825.19;106038;1271;25523;-80
2022/09/24 08:09:55;;;;;;;8.50;2.70;;;;;;;14.54;66.35;98823.09;105810;1272;22630;-83
2022/09/24 08:12:28;;;;;;;8.40;3.10;;;;;;;14.76;66.41;98811.52;106378;1271;23911;-79
2022/09/24 08:14:56;;;;;;;9.00;3.40;;;;;;;15.00;66.26;98801.05;105815;1274;22540;-81
2022/09/24 08:17:25;;;;;;;10.80;3.60;;;;;;;15.14;66.07;98801.54;106180;1274;24272;-81
2022/09/24 08:19:55;;;;;;;10.20;2.90;;;;;;;15.19;66.06;98797.43;106128;1274;22532;-82
2022/09/24 08:22:23;;;;;;;6.90;2.60;;;;;;;15.26;66.12;98801.27;106279;1271;23957;-83
2022/09/24 08:24:51;;;;;;;5.60;2.20;;;;;;;15.27;65.86;98801.33;105972;1271;25444;-79
2022/09/24 08:27:19;;;;;;;7.30;2.10;;;;;;;15.24;65.59;98802.17;106270;1271;25574;-80
2022/09/24 08:29:47;;;;;;;7.30;2.10;;;;;;;15.17;65.78;98805.92;105777;1271;22531;-80
2022/09/24 08:32:15;;;;;;;6.00;2.00;;;;;;;15.20;65.86;98807.61;105881;1274;25827;-81
2022/09/24 08:34:42;;;;;;;6.90;2.20;;;;;;;15.22;65.65;98809.70;106057;1274;25436;-79
2022/09/24 08:37:12;;;;;;;8.10;2.30;;;;;;;15.24;65.64;98810.95;106033;1272;25537;-80
2022/09/24 08:39:39;;;;;;;7.40;2.80;;;;;;;15.24;65.54;98817.45;106038;1274;22541;-82
2022/09/24 08:42:20;;;;;;;8.40;2.70;;;;;;;15.25;65.60;98823.58;106149;1273;23166;-80
2022/09/24 08:47:53;;;;;;;8.20;2.60;;;;;;;15.31;65.74;98811.15;106346;1271;22572;-82
2022/09/24 08:50:29;;;;;;;8.10;3.30;;;;;;;15.36;65.75;98807.64;106481;1271;22622;-79
2022/09/24 08:53:24;;;;;;;6.00;2.50;;;;;;;15.38;65.42;98808.47;106083;1271;22554;-82
2022/09/24 08:56:00;;;;;;;9.80;2.90;;;;;;;15.36;65.47;98804.45;106201;1271;22550;-79
2022/09/24 08:58:44;;;;;;;10.20;3.10;;;;;;;15.45;65.71;98802.70;106314;1272;22570;-83
2022/09/24 09:01:39;;;;;;;30.00;3.30;;;;;;;15.55;65.44;98807.22;106591;1271;26924;-79
2022/09/24 09:04:09;;;;;;;17.60;3.10;;;;;;;15.64;65.37;98810.94;106411;1271;25341;-83
2022/09/24 09:07:04;;;;;;;13.80;2.60;;;;;;;15.73;65.60;98809.16;106321;1272;24263;-86
2022/09/24 09:10:28;;;;;;;;;;;;;;;;;;;;;
2022/09/24 09:13:21;;;;;;;7.80;2.70;;;;;;;15.92;65.56;98810.88;105679;1279;24634;-81
2022/09/24 09:16:02;;;;;;;8.90;2.60;;;;;;;15.98;65.35;98806.84;105562;1284;22551;-83
2022/09/24 09:18:37;;;;;;;8.80;2.60;;;;;;;15.99;64.80;98809.11;105647;1281;25444;-80
2022/09/24 09:21:29;;;;;;;9.10;2.60;;;;;;;15.91;64.67;98809.89;105584;1281;24214;-82
2022/09/24 09:24:05;;;;;;;6.50;2.50;;;;;;;15.92;65.08;98810.32;105411;1284;22566;-80
2022/09/24 09:26:35;;;;;;;7.60;2.50;;;;;;;15.89;64.61;98808.11;105524;1282;22718;-79
2022/09/24 09:29:11;;;;;;;10.40;2.70;;;;;;;15.86;64.74;98805.84;105750;1281;24360;-80
2022/09/24 09:31:44;;;;;;;7.90;2.20;;;;;;;15.84;64.52;98804.31;105545;1282;22729;-84
2022/09/24 09:34:39;;;;;;;8.80;2.40;;;;;;;15.81;64.41;98805.86;105611;1279;22548;-86
2022/09/24 09:37:24;;;;;;;5.40;2.20;;;;;;;15.84;64.86;98808.36;105693;1279;22693;-79
2022/09/24 09:40:23;;;;;;;9.00;1.90;;;;;;;16.03;64.96;98811.05;105554;1279;25238;-79
2022/09/24 09:43:02;;;;;;;5.60;2.10;;;;;;;16.33;64.91;98806.92;105458;1281;26492;-83
2022/09/24 09:46:04;;;;;;;7.00;2.00;;;;;;;16.61;64.79;98806.81;105583;1279;25364;-79
2022/09/24 09:48:47;;;;;;;7.00;2.20;;;;;;;17.05;64.64;98799.91;105682;1275;23166;-85
2022/09/24 09:51:20;;;;;;;5.20;1.70;;;;;;;17.35;64.27;98792.11;106655;1271;25235;-80
2022/09/24 09:54:00;;;;;;;6.10;2.10;;;;;;;17.53;63.50;98788.33;106326;1271;25228;-79
2022/09/24 09:56:43;;;;;;;6.20;2.20;;;;;;;17.70;64.37;98792.51;106249;1274;25289;-80
2022/09/24 09:59:10;;;;;;;7.10;1.90;;;;;;;18.01;64.33;98792.67;106328;1271;22861;-81
2022/09/24 10:01:42;;;;;;;5.30;1.90;;;;;;;18.26;64.08;98790.27;106349;1271;22583;-85
2022/09/24 10:04:38;;;;;;;5.40;2.00;;;;;;;18.48;64.08;98789.50;106315;1271;22538;-85
2022/09/24 10:07:16;;;;;;;5.60;1.70;;;;;;;18.78;63.78;98793.47;106509;1272;22571;-80
2022/09/24 10:09:45;;;;;;;4.80;1.80;;;;;;;18.98;63.63;98794.48;106163;1272;24231;-87
2022/09/24 10:12:20;;;;;;;5.20;1.90;;;;;;;19.14;62.88;98794.18;106377;1272;25599;-80
2022/09/24 10:15:06;;;;;;;6.90;1.80;;;;;;;19.09;63.22;98793.64;106081;1274;24409;-83
2022/09/24 10:17:46;;;;;;;6.20;2.30;;;;;;;19.14;63.42;98792.90;105846;1274;24297;-83
2022/09/24 10:20:28;;;;;;;7.60;2.40;;;;;;;19.21;63.42;98792.61;106023;1275;24242;-81
2022/09/24 10:23:29;;;;;;;6.40;2.00;;;;;;;19.33;63.41;98792.39;105977;1274;24189;-82
2022/09/24 10:26:01;;;;;;;4.70;1.80;;;;;;;19.48;63.34;98787.61;106082;1273;24354;-85
2022/09/24 10:31:25;;;;;;;6.80;2.10;;;;;;;19.51;63.13;98791.02;106182;1274;22615;-81
2022/09/24 10:34:20;;;;;;;7.60;2.00;;;;;;;19.55;62.88;98790.61;106395;1272;24261;-81
2022/09/24 10:36:57;;;;;;;6.30;2.00;;;;;;;19.67;62.71;98788.02;106444;1271;22537;-81
2022/09/24 10:39:27;;;;;;;6.70;2.10;;;;;;;19.77;62.97;98788.71;106137;1271;22731;-81
2022/09/24 10:41:56;;;;;;;7.40;2.30;;;;;;;19.89;62.64;98786.07;106264;1271;26481;-80
2022/09/24 10:44:45;;;;;;;5.40;2.20;;;;;;;19.87;62.06;98786.83;106166;1271;24399;-86
2022/09/24 10:47:21;;;;;;;5.50;2.00;;;;;;;19.88;62.17;98784.89;106225;1273;25519;-83
2022/09/24 10:50:18;;;;;;;7.60;2.20;;;;;;;19.90;62.08;98789.33;106352;1271;24102;-80
2022/09/24 10:52:48;;;;;;;5.90;2.20;;;;;;;19.88;61.80;98788.89;106098;1274;24360;-83
2022/09/24 10:55:29;;;;;;;6.00;2.10;;;;;;;19.97;61.90;98791.59;106201;1272;22566;-84
2022/09/24 10:58:45;;;;;;;6.60;2.60;;;;;;;19.94;60.83;98788.89;106209;1274;22573;-81
2022/09/24 11:01:26;;;;;;;5.50;2.00;;;;;;;19.62;60.76;98788.95;106506;1271;25213;-80
2022/09/24 11:04:31;;;;;;;;;;;;;;;;;;;;;
2022/09/24 11:07:36;;;;;;;8.80;3.30;;;;;;;19.43;60.87;98782.05;106413;1270;25556;-81
2022/09/24 11:10:40;;;;;;;5.70;2.10;;;;;;;19.38;60.84;98778.80;106104;1274;22544;-80
2022/09/24 11:13:21;;;;;;;4.90;2.00;;;;;;;19.49;60.35;98779.89;106519;1271;24158;-79
2022/09/24 11:15:57;;;;;;;5.20;1.90;;;;;;;19.34;59.91;98777.63;106250;1271;22541;-85
2022/09/24 11:19:13;;;;;;;10.10;3.80;;;;;;;19.36;60.83;98776.20;106308;1271;22608;-83
2022/09/24 11:21:45;;;;;;;9.10;3.60;;;;;;;19.77;61.36;98777.27;106309;1271;24306;-83
2022/09/24 11:24:21;;;;;;;6.50;2.20;;;;;;;20.05;60.73;98772.80;106445;1271;22639;-83
2022/09/24 11:27:28;;;;;;;;;;;;;;;;;;;;;
2022/09/24 11:30:10;;;;;;;6.40;2.20;;;;;;;20.58;60.59;98763.73;106242;1271;22831;-81
2022/09/24 11:33:11;;;;;;;6.70;2.50;;;;;;;20.51;59.11;98759.28;106238;1271;22622;-81
2022/09/24 11:36:20;;;;;;;7.70;2.40;;;;;;;20.06;59.32;98756.57;106044;1271;22555;-81
2022/09/24 11:39:05;;;;;;;6.80;1.80;;;;;;;20.03;59.92;98757.67;105822;1279;22723;-82
2022/09/24 11:42:01;;;;;;;;;;;;;;;;;;;;;
2022/09/24 11:45:15;;;;;;;3.80;1.40;;;;;;;20.48;60.00;98765.58;105776;1279;24315;-85
2022/09/24 11:48:00;;;;;;;2.80;1.20;;;;;;;20.74;59.66;98766.34;105773;1279;25507;-87
2022/09/24 11:50:53;;;;;;;3.30;1.30;;;;;;;20.89;59.25;98760.61;105732;1280;22566;-82
2022/09/24 11:53:39;;;;;;;3.70;1.40;;;;;;;21.03;59.29;98759.26;105847;1279;22707;-82
2022/09/24 11:56:18;;;;;;;3.70;1.40;;;;;;;21.14;58.81;98749.27;105726;1280;25239;-80
2022/09/24 11:58:57;;;;;;;6.60;1.60;;;;;;;20.94;58.59;98746.59;105864;1280;22574;-86
2022/09/24 12:01:32;;;;;;;6.60;1.90;;;;;;;20.77;58.85;98747.11;105755;1279;22561;-85
2022/09/24 12:04:49;;;;;;;3.90;1.40;;;;;;;20.85;59.08;98744.23;105761;1279;24280;-82
2022/09/24 12:07:23;;;;;;;4.60;1.40;;;;;;;21.02;58.67;98739.06;105790;1279;22555;-85
2022/09/24 12:10:14;;;;;;;6.20;1.90;;;;;;;21.05;58.32;98734.94;105928;1271;25235;-81
2022/09/24 12:12:51;;;;;;;5.00;1.40;;;;;;;20.97;58.32;98725.20;105680;1281;25242;-82
2022/09/24 12:15:27;;;;;;;7.00;1.60;;;;;;;20.97;58.23;98727.92;105562;1282;22567;-81
2022/09/24 12:18:15;;;;;;;4.40;1.60;;;;;;;20.92;58.32;98729.10;105679;1281;25392;-86
2022/09/24 12:21:05;;;;;;;4.20;1.60;;;;;;;21.05;58.40;98723.54;105497;1280;22572;-86
2022/09/24 12:23:38;;;;;;;4.20;1.30;;;;;;;21.18;58.43;98724.82;105747;1281;23963;-86
2022/09/24 12:26:07;;;;;;;4.10;1.50;;;;;;;21.21;58.06;98721.73;105710;1281;25414;-81
2022/09/24 12:35:23;;;;;;;3.40;1.20;;;;;;;21.05;57.92;98718.23;105690;1281;22566;-83
2022/09/24 12:37:57;;;;;;;4.50;1.70;;;;;;;21.09;57.89;98722.14;105700;1281;22750;-84
2022/09/24 12:40:47;;;;;;;6.00;1.40;;;;;;;21.17;58.00;98721.88;105477;1282;24264;-84
2022/09/24 12:43:39;;;;;;;3.50;1.40;;;;;;;21.27;57.58;98719.23;105689;1281;22589;-86
2022/09/24 12:46:14;;;;;;;4.70;1.80;;;;;;;21.23;57.30;98711.90;105666;1281;25637;-80
2022/09/24 12:48:46;;;;;;;6.70;2.20;;;;;;;21.18;57.52;98709.70;105655;1281;22548;-84
2022/09/24 12:51:20;;;;;;;5.30;1.80;;;;;;;20.98;57.40;98710.58;106103;1274;22728;-82
2022/09/24 12:54:05;;;;;;;4.80;1.50;;;;;;;20.63;57.30;98709.34;105969;1271;22534;-82
2022/09/24 12:56:44;;;;;;;5.00;1.90;;;;;;;20.32;57.29;98709.08;106182;1273;22742;-81